Time;durP1;ratioP1;P1;durP2;ratioP2;P2;SDS_P1;SDS_P2;PMS_P1;PMS_P2;Temp;Humidity;BMP_temperature;BMP_pressure;BME280_temperature;BME280_humidity;BME280_pressure;Samples;Min_cycle;Max_cycle;Signal;HPM_P1;HPM_P2
2023/09/14 00:00:42;;;;;;;5.47;2.80;;;14.70;99.90;;;;;;4902319;29;20204;-70
2023/09/14 00:03:08;;;;;;;3.90;2.30;;;14.80;99.90;;;;;;4903373;29;20281;-70
2023/09/14 00:05:45;;;;;;;4.33;2.50;;;14.80;99.90;;;;;;4901744;29;20421;-70
2023/09/14 00:08:12;;;;;;;2.50;2.20;;;14.70;99.90;;;;;;4898957;29;20294;-71
2023/09/14 00:10:38;;;;;;;2.50;2.30;;;14.70;99.90;;;;;;4899239;29;20434;-72
2023/09/14 00:13:05;;;;;;;3.97;2.43;;;14.70;99.90;;;;;;4898728;29;20526;-70
2023/09/14 00:15:32;;;;;;;2.43;2.23;;;14.70;99.90;;;;;;4899069;29;20425;-70
2023/09/14 00:17:58;;;;;;;3.00;2.70;;;14.70;99.90;;;;;;4898579;29;20539;-71
2023/09/14 00:20:32;;;;;;;3.53;2.90;;;14.70;99.90;;;;;;4898991;29;20543;-70
2023/09/14 00:22:58;;;;;;;3.57;2.10;;;14.70;99.90;;;;;;4898908;29;20612;-70
2023/09/14 00:25:25;;;;;;;4.03;2.40;;;14.70;99.90;;;;;;4898712;29;20421;-70
2023/09/14 00:27:52;;;;;;;3.17;2.03;;;14.70;99.90;;;;;;4898555;29;20930;-70
2023/09/14 00:30:23;;;;;;;8.60;3.10;;;14.60;99.90;;;;;;4899150;29;20424;-70
2023/09/14 00:32:50;;;;;;;2.30;2.13;;;14.70;99.90;;;;;;4898637;29;20424;-70
2023/09/14 00:35:20;;;;;;;4.67;2.87;;;14.70;99.90;;;;;;4898732;29;20448;-70
2023/09/14 00:37:46;;;;;;;4.03;2.43;;;14.60;99.90;;;;;;4898393;29;20457;-70
2023/09/14 00:40:14;;;;;;;3.63;2.60;;;14.60;99.90;;;;;;4898520;29;20499;-72
2023/09/14 00:42:41;;;;;;;6.23;2.80;;;14.70;99.90;;;;;;4898485;29;20425;-70
2023/09/14 00:45:09;;;;;;;5.03;2.50;;;14.70;99.90;;;;;;4898341;29;20504;-70
2023/09/14 00:47:37;;;;;;;4.93;3.00;;;14.70;99.90;;;;;;4898353;29;20443;-71
2023/09/14 00:50:04;;;;;;;3.93;2.57;;;14.70;99.90;;;;;;4898358;29;20528;-70
2023/09/14 00:52:31;;;;;;;6.43;2.90;;;14.70;99.90;;;;;;4898403;29;20966;-70
2023/09/14 00:54:56;;;;;;;4.17;2.60;;;14.60;99.90;;;;;;4898426;29;20464;-70
2023/09/14 00:57:22;;;;;;;5.27;2.60;;;14.70;99.90;;;;;;4896173;29;20425;-71
2023/09/14 00:59:49;;;;;;;4.63;2.87;;;14.70;99.90;;;;;;4897782;29;20303;-71
2023/09/14 01:02:15;;;;;;;4.17;2.20;;;14.60;99.90;;;;;;4898357;29;20735;-71
2023/09/14 01:04:41;;;;;;;6.33;3.00;;;14.60;99.90;;;;;;4898296;29;20561;-71
2023/09/14 01:07:07;;;;;;;2.33;2.13;;;14.60;99.90;;;;;;4898548;29;20176;-70
2023/09/14 01:09:33;;;;;;;5.40;2.83;;;14.60;99.90;;;;;;4898290;29;20455;-70
2023/09/14 01:11:59;;;;;;;2.47;2.27;;;14.60;99.90;;;;;;4897807;29;20267;-71
2023/09/14 01:14:48;;;;;;;4.30;2.77;;;14.60;99.90;;;;;;4898007;29;20425;-71
2023/09/14 01:17:31;;;;;;;3.80;2.87;;;14.60;99.90;;;;;;4898039;29;20818;-71
2023/09/14 01:20:35;;;;;;;4.83;2.30;;;14.60;99.90;;;;;;4897819;29;20461;-71
2023/09/14 01:23:43;;;;;;;4.50;2.90;;;14.50;99.90;;;;;;4882334;29;20424;-71
2023/09/14 01:26:09;;;;;;;3.23;2.70;;;14.50;99.90;;;;;;4884575;29;20424;-71
2023/09/14 01:28:35;;;;;;;4.80;2.70;;;14.50;99.90;;;;;;4897789;29;20496;-71
2023/09/14 01:31:01;;;;;;;2.90;2.30;;;14.50;99.90;;;;;;4898049;29;20417;-71
2023/09/14 01:33:29;;;;;;;2.90;2.47;;;14.40;99.90;;;;;;4896795;29;20191;-71
2023/09/14 01:36:04;;;;;;;3.40;2.63;;;14.40;99.90;;;;;;4892172;29;20181;-71
2023/09/14 01:38:31;;;;;;;4.60;3.17;;;14.30;99.90;;;;;;4902819;29;20451;-71
2023/09/14 01:40:57;;;;;;;2.40;2.20;;;14.30;99.90;;;;;;4906454;29;20552;-71
2023/09/14 01:43:23;;;;;;;3.63;2.17;;;14.30;99.90;;;;;;4903839;29;20414;-72
2023/09/14 01:45:49;;;;;;;8.60;2.73;;;14.20;99.90;;;;;;4898123;29;20429;-71
2023/09/14 01:48:16;;;;;;;2.90;2.50;;;14.10;99.90;;;;;;4898377;29;20445;-71
2023/09/14 01:50:42;;;;;;;4.33;3.00;;;14.00;99.90;;;;;;4898816;29;20416;-71
2023/09/14 01:53:08;;;;;;;2.93;2.57;;;14.10;99.90;;;;;;4897232;29;20420;-71
2023/09/14 01:55:33;;;;;;;4.60;2.57;;;14.00;99.90;;;;;;4897226;29;20480;-71
2023/09/14 01:57:59;;;;;;;8.30;3.20;;;14.00;99.90;;;;;;4897576;29;20208;-72
2023/09/14 02:00:26;;;;;;;3.60;2.67;;;13.90;99.90;;;;;;4898029;29;20208;-72
2023/09/14 02:02:52;;;;;;;4.10;3.03;;;13.90;99.90;;;;;;4898412;29;20169;-71
2023/09/14 02:05:18;;;;;;;3.30;2.73;;;13.90;99.90;;;;;;4898399;29;20445;-72
2023/09/14 02:07:43;;;;;;;6.23;2.97;;;13.80;99.90;;;;;;4900442;29;20449;-71
2023/09/14 02:10:09;;;;;;;5.03;3.10;;;13.70;99.90;;;;;;4901847;29;20187;-72
2023/09/14 02:12:35;;;;;;;5.13;2.80;;;13.70;99.90;;;;;;4898427;29;20189;-72
2023/09/14 02:15:00;;;;;;;7.13;3.40;;;13.60;99.90;;;;;;4897051;29;20239;-71
2023/09/14 02:17:26;;;;;;;3.10;2.80;;;13.60;99.90;;;;;;4897014;29;20211;-72
2023/09/14 02:19:53;;;;;;;4.70;3.23;;;13.60;99.90;;;;;;4896856;29;20243;-72
2023/09/14 02:22:19;;;;;;;6.20;3.10;;;13.50;99.90;;;;;;4896784;29;20184;-73
2023/09/14 02:24:45;;;;;;;8.03;3.60;;;13.40;99.90;;;;;;4897069;29;20920;-72
2023/09/14 02:27:11;;;;;;;4.20;3.03;;;13.20;99.90;;;;;;4897130;29;20180;-72
2023/09/14 02:29:37;;;;;;;4.80;2.83;;;13.20;99.90;;;;;;4896797;29;20181;-72
2023/09/14 02:32:04;;;;;;;6.27;3.60;;;13.20;99.90;;;;;;4895995;29;20428;-71
2023/09/14 02:34:29;;;;;;;4.30;3.20;;;13.10;99.90;;;;;;4896637;29;20927;-70
2023/09/14 02:36:55;;;;;;;4.07;3.37;;;13.10;99.90;;;;;;4896721;29;20479;-70
2023/09/14 02:39:21;;;;;;;5.50;3.57;;;13.10;99.90;;;;;;4896381;29;20220;-72
2023/09/14 02:41:46;;;;;;;4.70;2.83;;;13.10;99.90;;;;;;4896564;29;20543;-71
2023/09/14 02:44:12;;;;;;;7.40;4.23;;;13.00;99.90;;;;;;4896507;29;20187;-71
2023/09/14 02:46:37;;;;;;;3.30;3.00;;;13.00;99.90;;;;;;4896732;29;20719;-71
2023/09/14 02:49:03;;;;;;;6.70;3.43;;;12.90;99.90;;;;;;4896484;29;20200;-71
2023/09/14 02:51:28;;;;;;;6.13;3.03;;;12.90;99.90;;;;;;4896507;29;20184;-72
2023/09/14 02:53:54;;;;;;;8.70;3.70;;;12.80;99.90;;;;;;4896412;29;20188;-71
2023/09/14 02:56:20;;;;;;;5.27;3.80;;;12.80;99.90;;;;;;4896552;29;20180;-70
2023/09/14 02:58:45;;;;;;;6.10;4.60;;;12.70;99.90;;;;;;4896646;29;20200;-70
2023/09/14 03:01:11;;;;;;;6.47;3.77;;;12.70;99.90;;;;;;4895627;29;20208;-71
2023/09/14 03:03:38;;;;;;;4.43;4.10;;;12.60;99.90;;;;;;4899323;29;20221;-71
2023/09/14 03:06:05;;;;;;;5.17;3.40;;;12.60;99.90;;;;;;4899799;29;20181;-71
2023/09/14 03:08:31;;;;;;;3.10;2.80;;;12.50;99.90;;;;;;4902560;29;20445;-71
2023/09/14 03:10:58;;;;;;;3.97;3.43;;;12.50;99.90;;;;;;4896816;29;20970;-70
2023/09/14 03:13:23;;;;;;;8.73;3.83;;;12.50;99.90;;;;;;4896253;29;20431;-72
2023/09/14 03:15:55;;;;;;;6.20;3.60;;;12.40;99.90;;;;;;4896733;29;20863;-71
2023/09/14 03:18:20;;;;;;;4.17;3.40;;;12.40;99.90;;;;;;4896112;29;20240;-70
2023/09/14 03:20:48;;;;;;;7.37;3.60;;;12.30;99.90;;;;;;4896463;29;20491;-70
2023/09/14 03:23:14;;;;;;;4.20;3.80;;;12.30;99.90;;;;;;4899682;29;20216;-70
2023/09/14 03:25:40;;;;;;;8.40;3.50;;;12.30;99.90;;;;;;4900130;29;20420;-71
2023/09/14 03:28:05;;;;;;;10.13;3.43;;;12.30;99.90;;;;;;4899743;29;20287;-71
2023/09/14 03:30:33;;;;;;;5.30;3.53;;;12.20;99.90;;;;;;4898701;29;20180;-71
2023/09/14 03:32:58;;;;;;;4.33;3.93;;;12.20;99.90;;;;;;4899650;29;20188;-71
2023/09/14 03:35:24;;;;;;;5.00;3.50;;;12.20;99.90;;;;;;4899803;29;20428;-71
2023/09/14 03:37:50;;;;;;;5.20;3.40;;;12.10;99.90;;;;;;4899698;29;20227;-71
2023/09/14 03:40:16;;;;;;;3.90;3.50;;;12.10;99.90;;;;;;4899754;29;20618;-71
2023/09/14 03:42:41;;;;;;;4.03;3.17;;;12.10;99.90;;;;;;4899769;29;20216;-71
2023/09/14 03:45:08;;;;;;;5.60;3.60;;;12.10;99.90;;;;;;4899729;29;20416;-71
2023/09/14 03:47:33;;;;;;;4.70;3.57;;;12.10;99.90;;;;;;4899845;29;20203;-70
2023/09/14 03:49:59;;;;;;;4.23;3.83;;;12.10;99.90;;;;;;4900654;29;20417;-71
2023/09/14 03:52:25;;;;;;;5.90;3.70;;;12.00;99.90;;;;;;4900353;29;20176;-71
2023/09/14 03:54:50;;;;;;;3.80;3.30;;;12.00;99.90;;;;;;4899775;29;20188;-71
2023/09/14 03:57:16;;;;;;;7.90;3.80;;;12.00;99.90;;;;;;4899722;29;20191;-72
2023/09/14 03:59:43;;;;;;;4.80;3.43;;;11.90;99.90;;;;;;4899629;29;20287;-71
2023/09/14 04:02:11;;;;;;;10.23;3.70;;;11.90;99.90;;;;;;4899449;29;20183;-71
2023/09/14 04:04:41;;;;;;;5.60;4.00;;;11.90;99.90;;;;;;4899365;29;20928;-70
2023/09/14 04:07:07;;;;;;;5.03;4.30;;;11.90;99.90;;;;;;4899608;29;20417;-69
2023/09/14 04:09:33;;;;;;;5.17;3.50;;;11.90;99.90;;;;;;4899584;29;20434;-71
2023/09/14 04:11:58;;;;;;;6.10;4.17;;;11.80;99.90;;;;;;4899606;29;20417;-71
2023/09/14 04:14:24;;;;;;;5.70;4.00;;;11.80;99.90;;;;;;4899419;29;20472;-71
2023/09/14 04:16:51;;;;;;;9.50;4.50;;;11.70;99.90;;;;;;4901152;29;20260;-71
2023/09/14 04:19:17;;;;;;;9.60;4.13;;;11.70;99.90;;;;;;4902325;29;20391;-70
2023/09/14 04:21:43;;;;;;;9.47;5.17;;;11.70;99.90;;;;;;4898895;29;20416;-71
2023/09/14 04:24:09;;;;;;;5.37;4.40;;;11.70;99.90;;;;;;4898964;29;20417;-70
2023/09/14 04:26:35;;;;;;;5.30;4.47;;;11.70;99.90;;;;;;4906275;29;20187;-71
2023/09/14 04:29:01;;;;;;;7.57;4.40;;;11.70;99.90;;;;;;4899990;29;20440;-71
2023/09/14 04:31:26;;;;;;;5.50;4.10;;;11.70;99.90;;;;;;4898915;29;20421;-71
2023/09/14 04:33:52;;;;;;;5.97;5.03;;;11.60;99.90;;;;;;4898563;29;20199;-71
2023/09/14 04:36:18;;;;;;;11.87;6.60;;;11.60;99.90;;;;;;4898648;29;20183;-71
2023/09/14 04:38:43;;;;;;;7.33;5.00;;;11.60;99.90;;;;;;4898718;29;20747;-71
2023/09/14 04:41:09;;;;;;;6.77;5.00;;;11.70;99.90;;;;;;4898703;29;20573;-72
2023/09/14 04:43:35;;;;;;;8.07;5.20;;;11.70;99.90;;;;;;4898593;29;20200;-71
2023/09/14 04:46:04;;;;;;;5.37;4.60;;;11.70;99.90;;;;;;4898948;29;20184;-71
2023/09/14 04:48:29;;;;;;;10.20;5.07;;;11.60;99.90;;;;;;4899481;29;20806;-71
2023/09/14 04:50:56;;;;;;;5.20;3.97;;;11.60;99.90;;;;;;4899186;29;20425;-71
2023/09/14 04:53:26;;;;;;;4.77;3.90;;;11.60;99.90;;;;;;4898324;29;20181;-71
2023/09/14 04:55:52;;;;;;;5.00;4.50;;;11.70;99.90;;;;;;4898679;29;20420;-71
2023/09/14 04:58:17;;;;;;;6.30;4.17;;;11.60;99.90;;;;;;4898244;29;20812;-72
2023/09/14 05:00:46;;;;;;;6.27;4.07;;;11.70;99.90;;;;;;4898580;29;20448;-71
2023/09/14 05:03:12;;;;;;;5.67;4.10;;;11.70;99.90;;;;;;4898342;29;20172;-69
2023/09/14 05:05:38;;;;;;;9.30;4.33;;;11.70;99.90;;;;;;4893288;29;20479;-73
2023/09/14 05:08:03;;;;;;;4.80;4.13;;;11.70;99.90;;;;;;4891753;29;20267;-71
2023/09/14 05:10:29;;;;;;;5.80;4.53;;;11.70;99.90;;;;;;4890481;29;20535;-72
2023/09/14 05:12:55;;;;;;;5.43;4.63;;;11.70;99.90;;;;;;4898108;29;20425;-72
2023/09/14 05:15:20;;;;;;;6.87;5.70;;;11.70;99.90;;;;;;4892217;29;20184;-72
2023/09/14 05:17:46;;;;;;;8.83;5.97;;;11.70;99.90;;;;;;4896694;29;20667;-71
2023/09/14 05:20:14;;;;;;;7.43;5.93;;;11.80;99.90;;;;;;4897889;29;20252;-71
2023/09/14 05:22:40;;;;;;;4.73;3.80;;;11.80;99.90;;;;;;4896467;29;20658;-71
2023/09/14 05:25:07;;;;;;;7.17;4.50;;;11.80;99.90;;;;;;4898037;29;20420;-71
2023/09/14 05:27:37;;;;;;;11.80;4.90;;;11.90;99.90;;;;;;4898261;29;20935;-70
2023/09/14 05:30:04;;;;;;;10.57;5.50;;;11.90;99.90;;;;;;4897953;29;20777;-71
2023/09/14 05:32:29;;;;;;;6.07;5.20;;;12.00;99.90;;;;;;4897850;29;20492;-72
2023/09/14 05:34:55;;;;;;;6.17;3.80;;;12.00;99.90;;;;;;4898091;29;20864;-70
2023/09/14 05:37:21;;;;;;;8.60;4.67;;;12.10;99.90;;;;;;4898039;29;20180;-71
2023/09/14 05:39:48;;;;;;;7.40;4.90;;;12.10;99.90;;;;;;4918205;23;20698;-69
2023/09/14 05:42:13;;;;;;;5.30;4.13;;;12.30;99.90;;;;;;4897227;29;20180;-67
2023/09/14 05:44:39;;;;;;;4.87;3.57;;;12.40;99.90;;;;;;4896748;29;20906;-66
2023/09/14 05:47:05;;;;;;;5.50;3.80;;;12.60;99.90;;;;;;4897638;29;20183;-67
2023/09/14 05:49:31;;;;;;;9.70;3.30;;;12.70;99.90;;;;;;4893760;29;20683;-67
2023/09/14 05:51:57;;;;;;;3.10;2.80;;;12.90;99.90;;;;;;4878560;29;20220;-68
2023/09/14 05:54:23;;;;;;;5.50;3.43;;;13.10;99.90;;;;;;4878738;29;20191;-67
2023/09/14 05:56:49;;;;;;;4.33;3.10;;;13.70;99.90;;;;;;4878406;29;20432;-67
2023/09/14 05:59:15;;;;;;;3.13;2.80;;;14.20;99.90;;;;;;4878179;29;20263;-68
2023/09/14 06:01:41;;;;;;;5.33;2.63;;;14.50;99.90;;;;;;4878264;29;20804;-68
2023/09/14 06:04:07;;;;;;;5.27;3.40;;;14.70;99.90;;;;;;4878304;29;20422;-68
2023/09/14 06:06:33;;;;;;;4.03;2.43;;;14.90;99.90;;;;;;4878456;29;20434;-69
2023/09/14 06:08:59;;;;;;;3.43;2.83;;;14.50;99.90;;;;;;4878435;29;20224;-68
2023/09/14 06:11:27;;;;;;;3.50;2.83;;;14.40;99.90;;;;;;4878135;29;20215;-68
2023/09/14 06:13:53;;;;;;;4.60;3.10;;;15.70;99.90;;;;;;4878033;29;20432;-68
2023/09/14 06:16:19;;;;;;;4.00;2.60;;;16.30;99.90;;;;;;4878129;29;20428;-68
2023/09/14 06:18:44;;;;;;;4.30;2.60;;;15.80;99.90;;;;;;4878102;29;20465;-67
2023/09/14 06:21:10;;;;;;;4.10;3.03;;;15.60;99.90;;;;;;4877984;29;20698;-68
2023/09/14 06:23:36;;;;;;;4.13;2.63;;;15.60;99.90;;;;;;4878026;29;20265;-71
2023/09/14 06:26:01;;;;;;;4.60;3.20;;;15.90;99.90;;;;;;4878094;29;20185;-69
2023/09/14 06:28:27;;;;;;;4.23;3.80;;;16.20;99.90;;;;;;4878056;29;20184;-67
2023/09/14 06:30:52;;;;;;;4.10;2.90;;;17.00;99.90;;;;;;4878176;29;20202;-68
2023/09/14 06:33:18;;;;;;;4.47;4.10;;;17.70;99.90;;;;;;4877901;29;20233;-67
2023/09/14 06:35:44;;;;;;;5.30;2.80;;;17.80;99.90;;;;;;4878221;29;20189;-68
2023/09/14 06:38:09;;;;;;;7.13;3.70;;;18.20;99.90;;;;;;4878149;29;20182;-68
2023/09/14 06:40:35;;;;;;;5.30;3.40;;;18.70;99.90;;;;;;4877625;29;20733;-69
2023/09/14 06:43:00;;;;;;;4.47;2.93;;;18.10;99.90;;;;;;4877802;29;20235;-67
2023/09/14 06:45:26;;;;;;;4.50;2.83;;;17.70;99.90;;;;;;4877939;29;20217;-67
2023/09/14 06:47:52;;;;;;;5.20;3.80;;;18.40;99.90;;;;;;4878018;29;20638;-68
2023/09/14 06:50:17;;;;;;;3.63;3.33;;;18.80;99.90;;;;;;4877894;29;20206;-68
2023/09/14 06:52:43;;;;;;;5.20;3.10;;;18.60;99.90;;;;;;4877920;29;20191;-68
2023/09/14 06:55:09;;;;;;;3.83;3.00;;;18.60;99.90;;;;;;4877866;29;20267;-68
2023/09/14 06:57:35;;;;;;;5.40;3.50;;;19.50;99.90;;;;;;4880920;29;20605;-67
2023/09/14 07:00:01;;;;;;;3.33;2.70;;;19.60;99.90;;;;;;4881735;29;20214;-71
2023/09/14 07:02:27;;;;;;;3.87;3.20;;;20.30;99.90;;;;;;4881699;29;20794;-68
2023/09/14 07:04:55;;;;;;;3.90;2.97;;;19.90;99.90;;;;;;4881552;29;20179;-69
2023/09/14 07:07:20;;;;;;;3.70;2.93;;;19.10;99.90;;;;;;4873392;29;20264;-69
2023/09/14 07:09:46;;;;;;;4.67;2.50;;;19.30;99.90;;;;;;4874113;29;20581;-68
2023/09/14 07:12:11;;;;;;;4.70;2.43;;;19.80;99.90;;;;;;4881315;29;20210;-70
2023/09/14 07:14:37;;;;;;;4.40;2.20;;;21.80;99.90;;;;;;4880606;29;20224;-69
2023/09/14 07:17:03;;;;;;;3.13;2.40;;;23.10;99.90;;;;;;4881440;29;20181;-68
2023/09/14 07:19:29;;;;;;;7.43;2.60;;;22.40;99.90;;;;;;4873410;29;20229;-69
2023/09/14 07:21:55;;;;;;;4.10;2.40;;;21.90;99.90;;;;;;4881123;29;20924;-69
2023/09/14 07:24:21;;;;;;;3.80;2.53;;;23.00;99.90;;;;;;4881266;29;20200;-69
2023/09/14 07:26:47;;;;;;;3.40;2.20;;;22.20;99.90;;;;;;4881636;29;20614;-69
2023/09/14 07:29:13;;;;;;;2.60;2.40;;;23.00;99.90;;;;;;4881184;29;20512;-69
2023/09/14 07:31:39;;;;;;;2.20;1.97;;;22.40;99.90;;;;;;4880974;29;20189;-67
2023/09/14 07:34:05;;;;;;;4.80;1.90;;;23.30;99.90;;;;;;4881074;29;20216;-68
2023/09/14 07:36:31;;;;;;;2.90;2.10;;;21.60;99.90;;;;;;4881405;29;20822;-67
2023/09/14 07:38:57;;;;;;;3.23;1.90;;;19.90;99.90;;;;;;4880809;29;20184;-68
2023/09/14 07:41:23;;;;;;;4.40;2.10;;;22.20;99.90;;;;;;4880566;29;20468;-68
2023/09/14 07:43:48;;;;;;;3.10;2.33;;;23.60;99.90;;;;;;4880743;29;20320;-68
2023/09/14 07:46:14;;;;;;;2.77;2.27;;;23.50;99.90;;;;;;4880956;29;20260;-68
2023/09/14 07:48:42;;;;;;;4.90;2.40;;;23.00;99.90;;;;;;4880782;29;20203;-68
2023/09/14 07:51:08;;;;;;;3.90;1.90;;;22.70;99.90;;;;;;4876016;29;20212;-68
2023/09/14 07:53:34;;;;;;;2.67;2.07;;;24.00;99.90;;;;;;4880432;29;20779;-68
2023/09/14 07:55:59;;;;;;;3.60;2.27;;;23.70;99.90;;;;;;4879624;29;20643;-68
2023/09/14 07:58:25;;;;;;;4.00;2.83;;;23.70;99.90;;;;;;4880556;29;20189;-69
2023/09/14 08:00:51;;;;;;;3.07;2.10;;;23.80;99.90;;;;;;4880654;29;20243;-68
2023/09/14 08:03:16;;;;;;;1.93;1.73;;;24.90;99.90;;;;;;4880422;29;20528;-68
2023/09/14 08:05:42;;;;;;;5.07;2.13;;;25.20;99.90;;;;;;4880482;29;20169;-69
2023/09/14 08:08:09;;;;;;;4.27;2.90;;;24.70;99.90;;;;;;4879919;29;20181;-68
2023/09/14 08:10:35;;;;;;;3.87;2.90;;;23.50;99.90;;;;;;4880212;29;20535;-70
2023/09/14 08:13:01;;;;;;;1.90;1.70;;;23.60;99.90;;;;;;4880421;29;21064;-69
2023/09/14 08:15:27;;;;;;;2.17;1.50;;;23.70;99.90;;;;;;4880180;29;20640;-70
2023/09/14 08:17:53;;;;;;;4.73;2.30;;;24.50;99.90;;;;;;4880444;29;20203;-69
2023/09/14 08:20:19;;;;;;;3.20;2.17;;;23.50;99.90;;;;;;4880761;29;21046;-69
2023/09/14 08:22:44;;;;;;;4.50;2.50;;;21.70;99.90;;;;;;4879990;29;20177;-69
2023/09/14 08:25:10;;;;;;;3.60;2.70;;;21.20;99.90;;;;;;4880109;29;20185;-69
2023/09/14 08:27:38;;;;;;;3.90;1.53;;;21.90;99.90;;;;;;4880271;29;20181;-69
2023/09/14 08:30:09;;;;;;;4.03;2.37;;;22.40;99.90;;;;;;4879957;29;20449;-69
2023/09/14 08:32:34;;;;;;;2.10;1.70;;;22.30;99.90;;;;;;4879995;29;20861;-69
2023/09/14 08:35:31;;;;;;;4.20;2.67;;;22.70;99.90;;;;;;4879910;29;20468;-69
2023/09/14 08:37:57;;;;;;;2.13;1.50;;;22.90;99.90;;;;;;4880140;29;20239;-68
2023/09/14 08:40:24;;;;;;;2.10;1.40;;;22.60;99.90;;;;;;4879445;29;20484;-70
2023/09/14 08:42:52;;;;;;;2.40;1.60;;;22.80;99.90;;;;;;4879878;29;20947;-70
2023/09/14 08:45:29;;;;;;;2.03;1.20;;;24.00;99.90;;;;;;4879707;29;20779;-72
2023/09/14 08:47:56;;;;;;;3.53;1.40;;;24.80;99.90;;;;;;4879789;29;20409;-68
2023/09/14 08:50:25;;;;;;;3.03;2.07;;;24.00;99.90;;;;;;4874383;29;20438;-69
2023/09/14 08:52:51;;;;;;;3.40;1.70;;;25.00;99.90;;;;;;4879718;29;20505;-69
2023/09/14 08:55:21;;;;;;;1.93;1.20;;;25.50;99.90;;;;;;4879604;29;20422;-70
2023/09/14 08:57:47;;;;;;;2.33;1.77;;;24.00;99.90;;;;;;4879452;29;20425;-70
2023/09/14 09:00:15;;;;;;;3.20;1.83;;;22.20;99.90;;;;;;4879243;29;20654;-70
2023/09/14 09:02:45;;;;;;;4.80;2.27;;;22.70;99.90;;;;;;4879274;29;20417;-69
2023/09/14 09:05:12;;;;;;;4.37;2.10;;;23.10;99.90;;;;;;4879282;29;20433;-68
2023/09/14 09:07:40;;;;;;;5.70;3.90;;;23.00;99.90;;;;;;4879471;29;20573;-70
2023/09/14 09:10:16;;;;;;;2.97;2.07;;;22.70;99.90;;;;;;4879214;29;20442;-70
2023/09/14 09:12:42;;;;;;;3.60;2.17;;;21.50;99.90;;;;;;4879233;29;20847;-69
2023/09/14 09:15:09;;;;;;;3.00;2.00;;;22.60;99.90;;;;;;4879184;29;20672;-70
2023/09/14 09:17:39;;;;;;;2.23;1.70;;;21.80;99.90;;;;;;4879259;29;20192;-71
2023/09/14 09:20:19;;;;;;;3.37;2.10;;;22.60;99.90;;;;;;4866551;29;20470;-70
2023/09/14 09:22:45;;;;;;;3.30;1.93;;;21.60;99.90;;;;;;4872416;29;20786;-73
2023/09/14 09:25:12;;;;;;;2.83;2.10;;;22.50;99.90;;;;;;4874275;29;20430;-70
2023/09/14 09:27:41;;;;;;;4.60;2.00;;;21.80;99.90;;;;;;4873321;29;20787;-70
2023/09/14 09:30:10;;;;;;;3.27;1.40;;;22.70;99.90;;;;;;4879029;29;20792;-71
2023/09/14 09:32:37;;;;;;;5.03;2.40;;;23.40;99.90;;;;;;4878853;29;20425;-68
2023/09/14 09:35:18;;;;;;;3.07;2.40;;;23.70;99.90;;;;;;4879023;29;20425;-68
2023/09/14 09:37:44;;;;;;;3.80;2.20;;;22.50;99.90;;;;;;4871999;29;20784;-69
2023/09/14 09:40:21;;;;;;;2.33;2.10;;;21.40;99.90;;;;;;4878580;29;20461;-69
2023/09/14 09:42:47;;;;;;;2.67;1.57;;;22.00;99.90;;;;;;4878955;29;20172;-69
2023/09/14 09:45:14;;;;;;;2.60;1.77;;;22.20;99.90;;;;;;4878801;29;20422;-70
2023/09/14 09:47:41;;;;;;;3.10;2.33;;;22.40;99.90;;;;;;4878726;29;20425;-69
2023/09/14 09:50:12;;;;;;;4.60;2.67;;;21.70;99.90;;;;;;4878610;29;20483;-70
2023/09/14 09:52:39;;;;;;;4.90;3.37;;;20.00;99.90;;;;;;4878827;29;20424;-69
2023/09/14 09:55:06;;;;;;;4.50;1.87;;;20.30;99.90;;;;;;4872992;29;20453;-70
2023/09/14 09:57:36;;;;;;;3.80;2.37;;;20.70;99.90;;;;;;4879277;29;20421;-70
2023/09/14 10:00:13;;;;;;;4.97;2.37;;;21.50;99.90;;;;;;4878644;29;20462;-70
2023/09/14 10:02:40;;;;;;;3.70;1.87;;;20.90;99.90;;;;;;4878707;29;20579;-70
2023/09/14 10:05:07;;;;;;;4.57;1.80;;;20.40;99.90;;;;;;4878391;29;20435;-71
2023/09/14 10:07:38;;;;;;;3.13;2.10;;;20.00;99.90;;;;;;4878458;29;20425;-70
2023/09/14 10:10:04;;;;;;;2.37;1.60;;;20.30;99.90;;;;;;4878467;29;20539;-70
2023/09/14 10:12:31;;;;;;;7.50;2.20;;;20.60;99.90;;;;;;4878469;29;20418;-70
2023/09/14 10:15:04;;;;;;;2.33;1.50;;;20.90;99.90;;;;;;4878416;29;20463;-70
2023/09/14 10:17:30;;;;;;;4.27;1.80;;;20.70;99.90;;;;;;4878324;29;20422;-70
2023/09/14 10:20:01;;;;;;;2.60;2.13;;;20.20;99.90;;;;;;4875043;29;20550;-70
2023/09/14 10:22:28;;;;;;;2.00;1.80;;;20.50;99.90;;;;;;4878288;29;20447;-70
2023/09/14 10:24:58;;;;;;;3.97;1.90;;;20.30;99.90;;;;;;4878672;29;20488;-70
2023/09/14 10:27:27;;;;;;;1.80;1.53;;;21.00;99.90;;;;;;4870584;29;20977;-70
2023/09/14 10:29:57;;;;;;;2.47;1.67;;;20.60;99.90;;;;;;4862585;29;20451;-68
2023/09/14 10:32:25;;;;;;;2.80;1.90;;;20.90;99.90;;;;;;4878454;29;20467;-69
2023/09/14 10:34:51;;;;;;;5.33;2.07;;;21.10;99.90;;;;;;4878476;29;20459;-69
2023/09/14 10:37:20;;;;;;;4.50;1.80;;;20.40;99.90;;;;;;4877967;29;20459;-68
2023/09/14 10:39:46;;;;;;;3.73;1.50;;;20.00;99.90;;;;;;4877583;29;20457;-68
2023/09/14 10:42:11;;;;;;;2.90;1.70;;;20.10;99.90;;;;;;4877937;29;20428;-69
2023/09/14 10:44:37;;;;;;;2.20;1.50;;;20.30;99.90;;;;;;4877919;29;20785;-68
2023/09/14 10:47:04;;;;;;;2.30;1.30;;;19.90;99.90;;;;;;4877926;29;20259;-69
2023/09/14 10:49:41;;;;;;;8.03;1.20;;;20.40;99.90;;;;;;4877639;29;20614;-68
2023/09/14 10:52:07;;;;;;;2.40;1.57;;;20.40;99.90;;;;;;4877680;29;20422;-68
2023/09/14 10:54:33;;;;;;;3.07;1.90;;;20.10;99.90;;;;;;4871956;29;20473;-70
2023/09/14 10:57:01;;;;;;;5.03;1.60;;;20.00;99.90;;;;;;4878171;29;20545;-69
2023/09/14 10:59:48;;;;;;;3.13;1.83;;;20.50;99.90;;;;;;4877841;29;20499;-68
2023/09/14 11:02:37;;;;;;;2.47;1.30;;;20.20;99.90;;;;;;4877712;29;20469;-69
2023/09/14 11:05:25;;;;;;;2.57;1.73;;;20.40;99.90;;;;;;4869889;29;20429;-69
2023/09/14 11:07:56;;;;;;;3.57;1.67;;;20.00;99.90;;;;;;4877649;29;20462;-69
2023/09/14 11:10:23;;;;;;;6.63;3.87;;;20.30;99.90;;;;;;4877707;29;20451;-69
2023/09/14 11:12:49;;;;;;;2.30;1.90;;;20.40;99.90;;;;;;4877482;29;20941;-69
2023/09/14 11:15:16;;;;;;;4.40;2.00;;;20.70;99.90;;;;;;4877602;29;20466;-69
2023/09/14 11:17:42;;;;;;;4.47;3.77;;;20.90;99.90;;;;;;4877593;29;20458;-68
2023/09/14 11:20:20;;;;;;;6.17;3.43;;;20.90;99.90;;;;;;4877087;29;20497;-68
2023/09/14 11:22:49;;;;;;;2.20;1.80;;;21.10;99.90;;;;;;4876365;29;20178;-69
2023/09/14 11:25:39;;;;;;;2.50;1.63;;;21.00;99.90;;;;;;4877535;29;20948;-69
2023/09/14 11:28:06;;;;;;;4.10;3.40;;;21.00;99.90;;;;;;4871633;29;20415;-71
2023/09/14 11:30:33;;;;;;;5.00;2.63;;;21.10;99.90;;;;;;4877393;29;20801;-68
2023/09/14 11:33:04;;;;;;;2.20;1.53;;;20.80;99.90;;;;;;4877396;29;20423;-68
2023/09/14 11:35:39;;;;;;;1.87;1.30;;;20.80;99.90;;;;;;4877643;29;20450;-68
2023/09/14 11:38:20;;;;;;;4.17;2.00;;;20.40;99.90;;;;;;4877577;29;20941;-69
2023/09/14 11:40:47;;;;;;;2.33;1.57;;;19.90;99.90;;;;;;4877067;29;20522;-69
2023/09/14 11:45:49;;;;;;;3.13;1.83;;;20.70;99.90;;;;;;4881228;29;20477;-69
2023/09/14 11:48:16;;;;;;;4.00;1.40;;;21.00;99.90;;;;;;4880955;29;20955;-68
2023/09/14 11:50:46;;;;;;;4.07;2.90;;;20.60;99.90;;;;;;4880610;29;20491;-69
2023/09/14 11:53:17;;;;;;;4.10;2.80;;;20.50;99.90;;;;;;4881114;29;20423;-70
2023/09/14 11:55:44;;;;;;;2.57;1.90;;;20.80;99.90;;;;;;4880852;29;20492;-69
2023/09/14 11:58:11;;;;;;;2.60;2.27;;;20.60;99.90;;;;;;4880731;29;20480;-69
2023/09/14 12:00:39;;;;;;;1.77;1.50;;;20.90;99.90;;;;;;4909806;23;20636;-72
2023/09/14 12:03:06;;;;;;;2.17;1.60;;;20.60;99.90;;;;;;4913280;29;20445;-73
2023/09/14 12:05:32;;;;;;;2.30;1.17;;;20.70;99.90;;;;;;4927107;29;20420;-70
2023/09/14 12:07:58;;;;;;;2.17;1.80;;;20.70;99.90;;;;;;4927492;29;20434;-72
2023/09/14 12:10:23;;;;;;;3.60;1.90;;;20.70;99.90;;;;;;4931966;29;20231;-73
2023/09/14 12:12:49;;;;;;;2.80;1.50;;;20.90;99.90;;;;;;4915787;29;20199;-72
2023/09/14 12:15:22;;;;;;;1.80;1.40;;;21.00;99.90;;;;;;4912991;29;20198;-72
2023/09/14 12:17:52;;;;;;;2.07;1.70;;;20.70;99.90;;;;;;4915962;29;20187;-71
2023/09/14 12:20:19;;;;;;;2.00;1.83;;;20.70;99.90;;;;;;4913886;29;20488;-71
2023/09/14 12:22:46;;;;;;;2.30;1.70;;;20.80;99.90;;;;;;4913853;29;20415;-71
2023/09/14 12:25:14;;;;;;;3.53;1.57;;;20.70;99.90;;;;;;4915875;29;20448;-71
2023/09/14 12:27:41;;;;;;;3.03;1.57;;;20.40;99.90;;;;;;4909231;29;20913;-70
2023/09/14 12:30:09;;;;;;;2.43;1.50;;;20.00;99.90;;;;;;4915835;29;20422;-71
2023/09/14 12:32:38;;;;;;;2.77;2.23;;;19.90;99.90;;;;;;4916092;29;20419;-72
2023/09/14 12:35:29;;;;;;;1.70;1.60;;;20.10;99.90;;;;;;4915642;29;20414;-71
2023/09/14 12:38:03;;;;;;;2.63;1.23;;;20.20;99.90;;;;;;4915803;29;20531;-71
2023/09/14 12:40:36;;;;;;;3.97;2.93;;;20.20;99.90;;;;;;4915177;29;20457;-72
2023/09/14 12:43:04;;;;;;;3.20;2.43;;;20.50;99.90;;;;;;4915628;29;20418;-72
2023/09/14 12:45:33;;;;;;;1.87;1.33;;;20.70;99.90;;;;;;4915816;29;20414;-72
2023/09/14 12:48:04;;;;;;;3.30;1.67;;;20.60;99.90;;;;;;4915764;29;20773;-71
2023/09/14 12:50:34;;;;;;;2.93;1.67;;;20.50;99.90;;;;;;4915458;29;20442;-72